Moyenne Distance (Open) St Angel - Bois des Pères (19) - D1

Date : 14/07/2011

Place Nom Licence Catégorie Club Temps CN à J-60 Points Différence Nouveau CN
1 GUSTAFSSON Jannina 17863 D18 0615AZ 0:28:27 4880 6130 +1250 6578
2 AMET Marion 14575 D16 8809LO 0:30:20 4285 5749 +1464 4645
3 BASTIN Hubert 10070 H60 2508FC 0:30:33 4988 5708 +720 5434
4 LOUAT Aime 12192 H60 8903BO 0:34:01 4782 5127 +345 4951
5 GUILMAIN Melanie 20572 D16 6208NO 0:35:04 3939 4973 +1034 4645
6 CALANDOT J-Pierre 2926 H60 1403NM 0:36:20 5124 4800 -324 5212
7 TAILLANDIER Guy 1583 H65 0801CA 0:38:36 5640 4518 -1122 5691
8 ROBERT Christian 1086 H65 7004FC 0:38:36 4895 4518 -377 5072
9 ANTOINE Alain 1270 H60 2605RA 0:39:00 4652 4471 -181 4894
10 VUILLET Christian 2712 H60 2105BO 0:39:06 4705 4460 -245 4705
11 RICHAUD Alain 4156 H65 8302AZ 0:39:22 4609 4430 -179 4754
12 MAGDINIER Gilles 1635 H60 1307PR 0:39:27 3880 4420 +540 4493
13 ALLANCON Michel 1005 H60 2906BR 0:39:44 4617 4389 -228 4742
14 LEMERCIER Bernard 1178 H60 5407LO 0:39:48 3815 4382 +567 3988
15 EJSMONT Jean 5597 H60 6208NO 0:40:06 4059 4349 +290 4189
16 GANZITTI Alexandre 3108 H65 9006FC 0:40:15 5262 4333 -929 5262
17 BASSET Fiona 23384 D16 6911RA 0:41:01 2419 4252 +1833 3602
18 VANNIER Bernard 2119 H65 7703IF 0:41:20 5150 4219 -931 5150
19 DUFOUR Marcel 2343 H65 2604RA 0:42:31 4199 4102 -97 4125
20 MENUT J-Claude 1656 H60 8105MP 0:42:46 5308 4078 -1230 5467
21 SIX Pauline 20215 D18 5906NO 0:43:34 3338 4003 +665 3413
22 VERDIN Alix 15276 D16 7109BO 0:43:56 3734 3969 +235 3905
23 QUEYROI Henri 655 H65 3308AQ 0:43:59 4207 3965 -242 4205
24 BAUDRY J-Claude 1693 H65 1705PC 0:45:18 3832 3850 +18 3880
25 SOL Michel 933 H60 7707IF 0:45:22 4341 3844 -497 4838
26 FONTAINE Helise 22962 D18 5907NO 0:45:33 3874 3828 -46 4216
27 GUIGUET Michel 455 H65 3801RA 0:45:35 3876 3826 -50 4041
28 VOGT Claude 2558 H65 6709AL 0:46:03 4298 3787 -511 4504
29 BAUDOIN Jean-Paul 16352 H60 0615AZ 0:47:12 4281 3695 -586 4348
30 JOUZEAU Georges 9472 H60 7404RA 0:47:20 4350 3684 -666 4616
31 RIVOLLIER Isaline 22451 D16 4201RA 0:47:23 3154 3680 +526 3566
32 GANDON J-Claude 249 H70 6906RA 0:47:37 3827 3662 -165 4159
33 DEUBELBEISS Alain 5508 H60 6307AU 0:47:39 3886 3660 -226 3938
34 DEFIX Anne-Claire 21435 D18 4203RA 0:48:15 3751 3614 -137 4329
35 PONCET Jean-Pierre 16756 H60 3913FC 0:48:16 5143 3613 -1530 5527
36 NATALI Pierre 1107 H60 8105MP 0:48:24 4038 3603 -435 4036
37 BENACEK Vaclav 2368 H65 6806AL 0:49:07 3861 3550 -311 3866
38 LEPOUPON Andre 1605 H60 1307PR 0:49:09 4073 3548 -525 4385
39 DUQUENNE Audrey 23885 D16 5907NO 0:49:32 3176 3521 +345 3535
40 CHARDOT Marion 22315 D16 7807IF 0:49:38 3526 3513 -13 3856
41 LEMERCIER Victoire 11454 D16 5407LO 0:49:39 3454 3512 +58 3402
42 MAIRE Candice 20170 D16 8807LO 0:50:05 3021 3482 +461 3284
43 LARMINACH Andre 646 H65 3308AQ 0:50:10 4208 3476 -732 4538
44 NOY-GSELL Arielle 11305 D16 7807IF 0:50:42 2564 3440 +876 2849
45 VERNOTTE Justine 23633 D16 1905LI 0:51:17 2214 3400 +1186 2873
46 BERCHE Léa 24420 D16 5907NO 0:51:34 2159 3382 +1223 2582
47 PELUSO Severine 9506 D16 8405PR 0:51:51 2870 3363 +493 3348
48 RIFFARD J-Claude 2445 H70 5702LO 0:53:39 3085 3250 +165 3283
49 TESSIER Daniel 2006 H60 7709IF 0:53:59 3991 3230 -761 4080
50 STUCKELBERGER Mathilde 15961 D18 1307PR 0:54:14 0 3215 2599
51 GEOFFROY Gerard 6442 H65 3408LR 0:54:56 3924 3175 -749 4056
52 CHARIAU Michel 3356 H60 7715IF 0:56:22 3444 3094 -350 3444
53 MULLER Raymond 352 H70 9006FC 0:56:58 3097 3061 -36 3163
54 DIEUDONNE Roland 1381 H65 7808IF 0:57:03 3451 3057 -394 3451
55 LUTHRINGER Coline 10091 D16 8809LO 0:57:49 3560 3016 -544 4079
56 DONNARD J-Pierre 561 H60 4504CE 1:01:24 4114 2840 -1274 4081
57 EUZEN J-Paul 16403 H70 6911RA 1:02:30 4028 2790 -1238 4042
58 KIEFFER J-Paul 2679 H60 2101BO 1:03:04 3281 2765 -516 3574
59 GUETIN Michel 2674 H70 2101BO 1:05:15 2306 2673 +367 2509
60 SZNAIDER Patrick 3556 H65 0615AZ 1:05:39 3611 2656 -955 3628
61 DRAULT J-Raymond 4234 H65 8702LI 1:06:25 2593 2626 +33 2665
62 BONNAVEIRA David 24751 H40 2606RA 1:07:52 2570 1547
63 BLAUDEZ Alain 9368 H65 8807LO 1:08:06 2561 2459
64 PERISSAT Fanette 23192 D18 7808IF 1:08:16 1069 2554 +1485 1301
65 JAOUEN Denis 6885 H60 2904BR 1:08:57 2953 2529 -424 3240
66 LEFOUEST Joseph 1000 H70 2904BR 1:09:49 3374 2498 -876 3276
67 BOURRIN Michel 809 H60 4203RA 1:09:59 2498 2492 -6 2672
68 PROST Daniel 2181 H70 9307IF 1:10:56 2789 2458 -331 2789
69 GROSJEAN Pierre 12354 H70 6913RA 1:15:22 2762 2314 -448 2893
70 BULLIER Alisson 23427 D16 0207PI 1:44:06 2613 1675 -938 2909
71 RIMETZ Marcelline 22235 D55 6208NO 2:04:20 1250 1403 +153 1364